createdAt,value
2017-12-21T00:00:03.515Z,4.00
2017-12-21T00:01:03.530Z,4.00
2017-12-21T00:02:03.544Z,4.00
2017-12-21T00:03:03.558Z,4.00
2017-12-21T00:04:03.575Z,4.00
2017-12-21T00:05:03.586Z,4.00
2017-12-21T00:06:03.602Z,4.00
2017-12-21T00:07:03.618Z,4.00
2017-12-21T00:08:03.629Z,4.00
2017-12-21T00:09:03.949Z,4.00
2017-12-21T00:10:03.659Z,4.00
2017-12-21T00:11:03.673Z,4.00
2017-12-21T00:12:03.686Z,4.00
2017-12-21T00:13:03.707Z,4.00
2017-12-21T00:14:03.715Z,4.00
2017-12-21T00:15:03.730Z,4.00
2017-12-21T00:16:03.747Z,4.00
2017-12-21T00:17:03.758Z,4.00
2017-12-21T00:18:03.777Z,4.00
2017-12-21T00:19:03.790Z,4.00
2017-12-21T00:20:03.806Z,4.00
2017-12-21T00:21:03.815Z,4.00
2017-12-21T00:22:03.831Z,4.00
2017-12-21T00:23:03.844Z,4.00
2017-12-21T00:24:03.859Z,4.00
2017-12-21T00:25:03.872Z,4.00
2017-12-21T00:26:03.888Z,4.00
2017-12-21T00:27:03.907Z,4.00
2017-12-21T00:28:03.977Z,4.00
2017-12-21T00:29:03.934Z,4.00
2017-12-21T00:30:03.946Z,4.00
2017-12-21T00:31:03.958Z,4.00
2017-12-21T00:32:03.974Z,4.00
2017-12-21T00:33:03.988Z,4.00
2017-12-21T00:34:04.002Z,4.00
2017-12-21T00:35:04.019Z,4.00
2017-12-21T00:36:04.035Z,4.00
2017-12-21T00:37:04.053Z,4.00
2017-12-21T00:38:04.064Z,4.00
2017-12-21T00:39:04.077Z,4.00
2017-12-21T00:40:04.094Z,4.00
2017-12-21T00:41:04.110Z,4.00
2017-12-21T00:42:04.121Z,4.00
2017-12-21T00:43:04.135Z,4.00
2017-12-21T00:44:04.149Z,4.00
2017-12-21T00:45:04.165Z,4.00
2017-12-21T00:46:04.178Z,4.00
2017-12-21T00:47:04.192Z,4.00
2017-12-21T00:48:04.211Z,4.00
2017-12-21T00:49:04.226Z,4.00
2017-12-21T00:50:04.245Z,4.00
2017-12-21T00:51:04.253Z,4.00
2017-12-21T00:52:04.264Z,4.00
2017-12-21T00:53:04.279Z,4.00
2017-12-21T00:54:04.293Z,4.00
2017-12-21T00:55:04.306Z,4.00
2017-12-21T00:56:04.319Z,4.00
2017-12-21T00:57:04.338Z,4.00
2017-12-21T00:58:04.350Z,4.00
2017-12-21T00:59:04.364Z,4.00
2017-12-21T01:00:04.379Z,4.00
2017-12-21T01:02:04.418Z,4.00
2017-12-21T01:03:04.422Z,4.00
2017-12-21T01:04:04.437Z,4.00
2017-12-21T01:05:04.448Z,4.00
2017-12-21T01:06:04.465Z,4.00
2017-12-21T01:07:04.477Z,4.00
2017-12-21T01:08:04.492Z,4.00
2017-12-21T01:09:04.518Z,4.00
2017-12-21T01:10:04.522Z,4.00
2017-12-21T01:11:04.538Z,4.00
2017-12-21T01:12:04.550Z,4.00
2017-12-21T01:13:04.566Z,4.00
2017-12-21T01:14:04.583Z,4.00
2017-12-21T01:15:04.593Z,4.00
2017-12-21T01:16:04.636Z,4.00
2017-12-21T01:17:04.621Z,4.00
2017-12-21T01:18:04.640Z,4.00
2017-12-21T01:19:04.653Z,4.00
2017-12-21T01:20:04.668Z,4.00
2017-12-21T01:21:04.685Z,4.00
2017-12-21T01:22:04.695Z,4.00
2017-12-21T01:23:04.708Z,4.00
2017-12-21T01:24:04.723Z,4.00
2017-12-21T01:25:04.738Z,4.00
2017-12-21T01:26:04.751Z,4.00
2017-12-21T01:27:04.765Z,4.00
2017-12-21T01:28:04.782Z,4.00
2017-12-21T01:29:04.796Z,4.00
2017-12-21T01:30:04.810Z,4.00
2017-12-21T01:31:04.829Z,4.00
2017-12-21T01:32:04.840Z,4.00
2017-12-21T01:33:04.852Z,4.00
2017-12-21T01:34:04.868Z,4.00
2017-12-21T01:35:04.882Z,4.00
2017-12-21T01:36:04.895Z,4.00
2017-12-21T01:37:04.910Z,4.00
2017-12-21T01:38:04.927Z,4.00
2017-12-21T01:39:04.938Z,4.00
2017-12-21T01:40:04.951Z,4.00
2017-12-21T01:41:04.969Z,4.00
2017-12-21T01:42:04.982Z,4.00
2017-12-21T01:43:04.995Z,4.00
2017-12-21T01:44:05.010Z,4.00
2017-12-21T01:45:05.025Z,4.00
2017-12-21T01:46:05.040Z,4.00
2017-12-21T01:47:05.053Z,4.00
2017-12-21T01:48:05.067Z,4.00
2017-12-21T01:49:05.085Z,4.00
2017-12-21T01:50:05.096Z,4.00
2017-12-21T01:51:05.111Z,4.00
2017-12-21T01:52:05.127Z,4.00
2017-12-21T01:53:05.140Z,4.00
2017-12-21T01:54:05.155Z,4.00
2017-12-21T01:55:05.169Z,4.00
2017-12-21T01:56:05.182Z,4.00
2017-12-21T01:57:05.199Z,4.00
2017-12-21T01:58:05.216Z,4.00
2017-12-21T01:59:05.226Z,4.00
2017-12-21T02:00:05.234Z,4.00
2017-12-21T02:01:05.247Z,4.00
2017-12-21T02:02:05.261Z,4.00
2017-12-21T02:03:05.274Z,4.00
2017-12-21T02:04:05.289Z,4.00
2017-12-21T02:05:05.307Z,4.00
2017-12-21T02:06:05.319Z,4.00
2017-12-21T02:07:05.331Z,4.00
2017-12-21T02:08:05.353Z,4.00
2017-12-21T02:09:05.361Z,4.00
2017-12-21T02:10:05.375Z,4.00
2017-12-21T02:11:05.404Z,4.00
2017-12-21T02:12:05.404Z,4.00
2017-12-21T02:13:05.419Z,4.00
2017-12-21T02:14:05.434Z,4.00
2017-12-21T02:15:05.447Z,4.00
2017-12-21T02:16:05.459Z,4.00
2017-12-21T02:17:05.479Z,4.00
2017-12-21T02:18:05.495Z,4.00
2017-12-21T02:19:05.504Z,4.00
2017-12-21T02:20:05.534Z,4.00
2017-12-21T02:21:05.536Z,4.00
2017-12-21T02:22:05.546Z,4.00
2017-12-21T02:23:05.559Z,4.00
2017-12-21T02:24:05.574Z,4.00
2017-12-21T02:25:05.589Z,4.00
2017-12-21T02:26:05.606Z,4.00
2017-12-21T02:27:05.616Z,4.00
2017-12-21T02:28:05.631Z,4.00
2017-12-21T02:29:05.645Z,4.00
2017-12-21T02:30:05.660Z,4.00
2017-12-21T02:31:05.674Z,4.00
2017-12-21T02:32:05.690Z,4.00
2017-12-21T02:33:05.710Z,4.00
2017-12-21T02:34:05.720Z,4.00
2017-12-21T02:35:05.739Z,4.00
2017-12-21T02:36:05.743Z,4.00
2017-12-21T02:37:05.767Z,4.00
2017-12-21T02:38:05.774Z,4.00
2017-12-21T02:39:05.785Z,4.00
2017-12-21T02:40:05.903Z,4.00
2017-12-21T02:41:05.833Z,4.00
2017-12-21T02:42:05.830Z,4.00
2017-12-21T02:43:05.864Z,4.00
2017-12-21T02:44:05.857Z,4.00
2017-12-21T02:45:05.876Z,4.00
2017-12-21T02:46:05.886Z,4.00
2017-12-21T02:47:05.905Z,4.00
2017-12-21T02:48:05.916Z,4.00
2017-12-21T02:49:05.932Z,4.00
2017-12-21T02:50:05.943Z,4.00
2017-12-21T02:51:05.962Z,4.00
2017-12-21T02:52:05.972Z,4.00
2017-12-21T02:53:05.984Z,4.00
2017-12-21T02:54:06.001Z,4.00
2017-12-21T02:55:06.014Z,4.00
2017-12-21T02:56:06.028Z,4.00
2017-12-21T02:57:06.047Z,4.00
2017-12-21T02:58:06.057Z,4.00
2017-12-21T02:59:06.072Z,4.00
2017-12-21T03:00:06.085Z,4.00
2017-12-21T03:01:06.099Z,4.00
2017-12-21T03:02:06.114Z,4.00
2017-12-21T03:03:06.128Z,4.00
2017-12-21T03:04:06.147Z,4.00
2017-12-21T03:05:06.158Z,4.00
2017-12-21T03:06:06.177Z,4.00
2017-12-21T03:07:06.186Z,4.00
2017-12-21T03:08:06.201Z,4.00
2017-12-21T03:09:06.215Z,4.00
2017-12-21T03:10:06.230Z,4.00
2017-12-21T03:11:06.244Z,4.00
2017-12-21T03:12:06.258Z,4.00
2017-12-21T03:13:06.273Z,4.00
2017-12-21T03:14:06.292Z,4.00
2017-12-21T03:15:06.301Z,4.00
2017-12-21T03:16:06.315Z,4.00
2017-12-21T03:17:06.336Z,4.00
2017-12-21T03:18:06.345Z,4.00
2017-12-21T03:19:06.359Z,4.00
2017-12-21T03:20:06.374Z,4.00
2017-12-21T03:21:06.389Z,4.00
2017-12-21T03:22:06.403Z,4.00
2017-12-21T03:23:06.416Z,4.00
2017-12-21T03:24:06.429Z,4.00
2017-12-21T03:25:06.447Z,4.00
2017-12-21T03:26:06.460Z,4.00
2017-12-21T03:27:06.473Z,4.00
2017-12-21T03:28:06.489Z,4.00
2017-12-21T03:29:06.505Z,4.00
2017-12-21T03:30:06.519Z,4.00
2017-12-21T03:31:06.536Z,4.00
2017-12-21T03:32:06.554Z,4.00
2017-12-21T03:33:06.564Z,4.00
2017-12-21T03:34:06.576Z,4.00
2017-12-21T03:35:06.588Z,4.00
2017-12-21T03:36:06.605Z,4.00
2017-12-21T03:37:06.619Z,4.00
2017-12-21T03:38:06.633Z,4.00
2017-12-21T03:39:06.647Z,4.00
2017-12-21T03:40:06.664Z,4.00
2017-12-21T03:41:06.676Z,4.00
2017-12-21T03:42:06.691Z,4.00
2017-12-21T03:43:06.703Z,4.00
2017-12-21T03:44:06.721Z,4.00
2017-12-21T03:45:06.733Z,4.00
2017-12-21T03:46:06.747Z,4.00
2017-12-21T03:47:06.763Z,4.00
2017-12-21T03:48:06.775Z,4.00
2017-12-21T03:49:06.790Z,4.00
2017-12-21T03:50:06.803Z,4.00
2017-12-21T03:51:06.821Z,4.00
2017-12-21T03:52:06.834Z,4.00
2017-12-21T03:53:06.846Z,4.00
2017-12-21T03:54:06.861Z,4.00
2017-12-21T03:55:06.874Z,4.00
2017-12-21T03:56:06.890Z,4.00
2017-12-21T03:57:06.905Z,4.00
2017-12-21T03:58:06.921Z,4.00
2017-12-21T03:59:06.932Z,4.00
2017-12-21T04:00:06.946Z,4.00
2017-12-21T04:01:06.965Z,4.00
2017-12-21T04:02:06.975Z,4.00
2017-12-21T04:03:06.991Z,4.00
2017-12-21T04:04:07.004Z,4.00
2017-12-21T04:05:07.021Z,4.00
2017-12-21T04:06:07.041Z,4.00
2017-12-21T04:07:07.049Z,4.00
2017-12-21T04:08:07.062Z,4.00
2017-12-21T04:09:07.077Z,4.00
2017-12-21T04:10:07.090Z,4.00
2017-12-21T04:11:07.106Z,4.00
2017-12-21T04:12:07.117Z,4.00
2017-12-21T04:13:07.134Z,4.00
2017-12-21T04:14:07.148Z,4.00
2017-12-21T04:15:07.165Z,4.00
2017-12-21T04:16:07.175Z,4.00
2017-12-21T04:17:07.194Z,4.00
2017-12-21T04:18:07.204Z,4.00
2017-12-21T04:19:07.219Z,4.00
2017-12-21T04:20:07.232Z,4.00
2017-12-21T04:21:07.246Z,4.00
2017-12-21T04:22:07.261Z,4.00
2017-12-21T04:23:07.275Z,4.00
2017-12-21T04:24:07.289Z,4.00
2017-12-21T04:25:07.303Z,4.00
2017-12-21T04:26:07.318Z,4.00
2017-12-21T04:27:07.330Z,4.00
2017-12-21T04:28:07.345Z,4.00
2017-12-21T04:29:07.359Z,4.00
2017-12-21T04:30:07.375Z,4.00
2017-12-21T04:31:07.387Z,4.00
2017-12-21T04:32:07.401Z,4.00
2017-12-21T04:33:07.415Z,4.00
2017-12-21T04:34:07.430Z,4.00
2017-12-21T04:35:07.442Z,4.00
2017-12-21T04:36:07.457Z,4.00
2017-12-21T04:37:07.470Z,4.00
2017-12-21T04:38:07.489Z,4.00
2017-12-21T04:39:07.499Z,4.00
2017-12-21T04:40:07.514Z,4.00
2017-12-21T04:41:07.526Z,4.00
2017-12-21T04:42:07.542Z,4.00
2017-12-21T04:43:07.555Z,4.00
2017-12-21T04:44:07.573Z,4.00
2017-12-21T04:45:07.581Z,4.00
2017-12-21T04:46:07.596Z,4.00
2017-12-21T04:47:07.609Z,4.00
2017-12-21T04:48:07.625Z,4.00
2017-12-21T04:49:07.638Z,4.00
2017-12-21T04:50:07.652Z,4.00
2017-12-21T04:51:07.665Z,4.00
2017-12-21T04:52:07.679Z,4.00
2017-12-21T04:53:07.694Z,4.00
2017-12-21T04:54:07.706Z,4.00
2017-12-21T04:55:07.722Z,4.00
2017-12-21T04:56:07.734Z,4.00
2017-12-21T04:57:07.751Z,4.00
2017-12-21T04:58:07.763Z,4.00
2017-12-21T04:59:07.775Z,4.00
2017-12-21T05:00:07.793Z,4.00
2017-12-21T05:01:07.811Z,4.00
2017-12-21T05:02:07.818Z,4.00
2017-12-21T05:03:07.830Z,4.00
2017-12-21T05:04:07.845Z,4.00
2017-12-21T05:05:07.859Z,4.00
2017-12-21T05:06:07.874Z,4.00
2017-12-21T05:07:07.887Z,4.00
2017-12-21T05:08:07.900Z,4.00
2017-12-21T05:09:07.917Z,4.00
2017-12-21T05:10:07.929Z,4.00
2017-12-21T05:11:07.941Z,4.00
2017-12-21T05:12:07.957Z,4.00
2017-12-21T05:13:07.971Z,4.00
2017-12-21T05:14:07.986Z,4.00
2017-12-21T05:15:08.001Z,4.00
2017-12-21T05:16:08.013Z,4.00
2017-12-21T05:17:08.028Z,4.00
2017-12-21T05:18:08.040Z,4.00
2017-12-21T05:19:08.055Z,4.00
2017-12-21T05:20:08.069Z,4.00
2017-12-21T05:21:08.087Z,4.00
2017-12-21T05:22:08.096Z,4.00
2017-12-21T05:23:08.110Z,4.00
2017-12-21T05:24:08.123Z,4.00
2017-12-21T05:25:08.138Z,4.00
2017-12-21T05:26:08.152Z,4.00
2017-12-21T05:27:08.164Z,4.00
2017-12-21T05:28:08.191Z,4.00
2017-12-21T05:29:08.196Z,4.00
2017-12-21T05:30:08.208Z,4.00
2017-12-21T05:31:08.223Z,4.00
2017-12-21T05:32:08.238Z,4.00
2017-12-21T05:33:08.251Z,4.00
2017-12-21T05:34:08.265Z,4.00
2017-12-21T05:35:08.279Z,4.00
2017-12-21T05:36:08.294Z,4.00
2017-12-21T05:37:08.308Z,4.00
2017-12-21T05:38:08.320Z,4.00
2017-12-21T05:39:08.335Z,4.00
2017-12-21T05:40:08.349Z,4.00
2017-12-21T05:41:08.362Z,4.00
2017-12-21T05:42:08.377Z,4.00
2017-12-21T05:43:08.389Z,4.00
2017-12-21T05:44:08.404Z,4.00
2017-12-21T05:45:08.418Z,4.00
2017-12-21T05:46:08.442Z,4.00
2017-12-21T05:47:08.446Z,4.00
2017-12-21T05:48:08.459Z,4.00
2017-12-21T05:49:08.476Z,4.00
2017-12-21T05:50:08.490Z,4.00
2017-12-21T05:51:08.549Z,4.00
2017-12-21T05:52:08.516Z,4.00
2017-12-21T05:53:08.537Z,4.00
2017-12-21T05:54:08.546Z,4.00
2017-12-21T05:55:08.558Z,4.00
2017-12-21T05:56:08.572Z,4.00
2017-12-21T05:57:08.587Z,4.00
2017-12-21T05:58:08.601Z,4.00
2017-12-21T05:59:08.619Z,4.00
2017-12-21T06:00:08.630Z,4.00
2017-12-21T06:01:08.645Z,4.00
2017-12-21T06:02:08.658Z,4.00
2017-12-21T06:03:08.674Z,4.00
2017-12-21T06:04:08.684Z,4.00
2017-12-21T06:05:08.700Z,4.00
2017-12-21T06:06:08.713Z,4.00
2017-12-21T06:07:08.727Z,4.00
2017-12-21T06:08:08.743Z,4.00
2017-12-21T06:09:08.756Z,4.00
2017-12-21T06:10:08.769Z,4.00
2017-12-21T06:11:08.782Z,4.00
2017-12-21T06:12:08.796Z,4.00
2017-12-21T06:13:08.817Z,4.00
2017-12-21T06:14:08.825Z,4.00
2017-12-21T06:15:08.840Z,4.00
2017-12-21T06:16:08.853Z,4.00
2017-12-21T06:17:08.867Z,4.00
2017-12-21T06:18:08.883Z,4.00
2017-12-21T06:19:08.897Z,4.00
2017-12-21T06:20:08.910Z,4.00
2017-12-21T06:21:08.928Z,4.00
2017-12-21T06:22:08.943Z,4.00
2017-12-21T06:23:08.955Z,4.00
2017-12-21T06:24:09.010Z,4.00
2017-12-21T06:25:08.980Z,4.00
2017-12-21T06:26:08.995Z,4.00
2017-12-21T06:27:09.011Z,4.00
2017-12-21T06:28:09.020Z,8.00
2017-12-21T06:29:09.040Z,8.00
2017-12-21T06:30:09.055Z,8.00
2017-12-21T06:31:09.063Z,4.00
2017-12-21T06:32:09.095Z,4.00
2017-12-21T06:33:09.102Z,4.00
2017-12-21T06:34:09.105Z,4.00
2017-12-21T06:35:09.121Z,4.00
2017-12-21T06:36:09.134Z,4.00
2017-12-21T06:37:09.148Z,4.00
2017-12-21T06:38:09.165Z,4.00
2017-12-21T06:39:09.174Z,4.00
2017-12-21T06:40:09.190Z,4.00
2017-12-21T06:41:09.264Z,4.00
2017-12-21T06:42:09.220Z,4.00
2017-12-21T06:43:09.231Z,4.00
2017-12-21T06:44:09.251Z,4.00
2017-12-21T06:45:09.265Z,4.00
2017-12-21T06:46:09.275Z,4.00
2017-12-21T06:47:09.337Z,4.00
2017-12-21T06:48:09.305Z,4.00
2017-12-21T06:49:09.315Z,4.00
2017-12-21T06:50:09.339Z,4.00
2017-12-21T06:51:09.342Z,4.00
2017-12-21T06:52:09.359Z,4.00
2017-12-21T06:53:09.376Z,4.00
2017-12-21T06:54:09.394Z,4.00
2017-12-21T06:55:09.400Z,4.00
2017-12-21T06:56:09.414Z,4.00
2017-12-21T06:57:09.430Z,4.00
2017-12-21T06:58:09.450Z,4.00
2017-12-21T06:59:09.454Z,4.00
2017-12-21T07:00:09.470Z,4.00
2017-12-21T07:01:09.485Z,4.00
2017-12-21T07:02:09.501Z,4.00
2017-12-21T07:03:09.515Z,4.00
2017-12-21T07:04:09.528Z,4.00
2017-12-21T07:05:09.539Z,4.00
2017-12-21T07:06:09.553Z,8.00
2017-12-21T07:07:09.567Z,8.00
2017-12-21T07:08:09.581Z,8.00
2017-12-21T07:09:09.599Z,8.00
2017-12-21T07:10:09.618Z,4.00
2017-12-21T07:11:09.645Z,4.00
2017-12-21T07:12:09.640Z,4.00
2017-12-21T07:13:09.658Z,8.00
2017-12-21T07:14:09.666Z,8.00
2017-12-21T07:15:09.682Z,8.00
2017-12-21T07:16:09.695Z,8.00
2017-12-21T07:17:09.707Z,8.00
2017-12-21T07:18:09.724Z,12.00
2017-12-21T07:19:09.745Z,8.00
2017-12-21T07:20:09.750Z,12.00
2017-12-21T07:21:09.766Z,12.00
2017-12-21T07:22:09.785Z,12.00
2017-12-21T07:23:09.798Z,16.00
2017-12-21T07:24:09.807Z,12.00
2017-12-21T07:25:09.824Z,16.00
2017-12-21T07:26:09.843Z,16.00
2017-12-21T07:27:09.854Z,16.00
2017-12-21T07:28:09.861Z,16.00
2017-12-21T07:29:09.877Z,20.00
2017-12-21T07:30:09.924Z,20.00
2017-12-21T07:31:09.907Z,24.00
2017-12-21T07:32:09.922Z,24.00
2017-12-21T07:33:09.932Z,24.00
2017-12-21T07:34:09.945Z,24.00
2017-12-21T07:35:09.960Z,28.00
2017-12-21T07:36:09.975Z,28.00
2017-12-21T07:37:09.989Z,28.00
2017-12-21T07:38:10.005Z,36.00
2017-12-21T07:39:10.016Z,36.00
2017-12-21T07:40:10.028Z,36.00
2017-12-21T07:41:10.043Z,36.00
2017-12-21T07:42:10.060Z,48.00
2017-12-21T07:43:10.073Z,48.00
2017-12-21T07:44:10.097Z,48.00
2017-12-21T07:45:10.106Z,56.00
2017-12-21T07:46:10.115Z,56.00
2017-12-21T07:47:10.128Z,60.00
2017-12-21T07:48:10.143Z,56.00
2017-12-21T07:49:10.817Z,60.00
2017-12-21T07:50:10.167Z,64.00
2017-12-21T07:51:10.184Z,68.00
2017-12-21T07:52:10.215Z,72.00
2017-12-21T07:53:10.209Z,80.00
2017-12-21T07:54:10.244Z,84.00
2017-12-21T07:55:10.235Z,88.00
2017-12-21T07:56:10.255Z,96.00
2017-12-21T07:57:10.280Z,104.00
2017-12-21T07:58:10.282Z,116.00
2017-12-21T07:59:10.292Z,124.00
2017-12-21T08:00:10.308Z,128.00
2017-12-21T08:01:10.324Z,136.00
2017-12-21T08:02:10.335Z,140.00
2017-12-21T08:03:10.354Z,148.00
2017-12-21T08:05:10.377Z,164.00
2017-12-21T08:06:10.393Z,176.00
2017-12-21T08:07:10.404Z,184.00
2017-12-21T08:08:10.419Z,196.00
2017-12-21T08:09:10.437Z,208.00
2017-12-21T08:10:10.449Z,220.00
2017-12-21T08:11:10.462Z,228.00
2017-12-21T08:12:10.474Z,228.00
2017-12-21T08:13:10.527Z,232.00
2017-12-21T08:14:10.506Z,228.00
2017-12-21T08:15:10.517Z,236.00
2017-12-21T08:16:10.531Z,240.00
2017-12-21T08:17:10.546Z,240.00
2017-12-21T08:18:10.561Z,224.00
2017-12-21T08:19:10.957Z,204.00
2017-12-21T08:20:10.590Z,220.00
2017-12-21T08:21:10.603Z,236.00
2017-12-21T08:22:10.620Z,252.00
2017-12-21T08:23:10.634Z,256.00
2017-12-21T08:24:10.648Z,264.00
2017-12-21T08:25:10.715Z,268.00
2017-12-21T08:26:10.676Z,272.00
2017-12-21T08:27:10.698Z,280.00
2017-12-21T08:28:10.709Z,288.00
2017-12-21T08:29:10.718Z,292.00
2017-12-21T08:30:10.733Z,304.00
2017-12-21T08:31:10.747Z,332.00
2017-12-21T08:32:10.974Z,336.00
2017-12-21T08:33:10.776Z,348.00
2017-12-21T08:34:10.791Z,360.00
2017-12-21T08:35:11.003Z,348.00
2017-12-21T08:36:10.818Z,332.00
2017-12-21T08:37:10.834Z,332.00
2017-12-21T08:38:10.852Z,340.00
2017-12-21T08:39:10.864Z,344.00
2017-12-21T08:40:10.877Z,340.00
2017-12-21T08:41:10.890Z,316.00
2017-12-21T08:42:10.988Z,316.00
2017-12-21T08:43:10.919Z,336.00
2017-12-21T08:44:10.934Z,356.00
2017-12-21T08:45:10.980Z,404.00
2017-12-21T08:47:10.975Z,424.00
2017-12-21T08:48:11.027Z,384.00
2017-12-21T08:49:11.007Z,408.00
2017-12-21T08:50:11.021Z,440.00
2017-12-21T08:51:11.049Z,480.00
2017-12-21T08:52:11.047Z,544.00
2017-12-21T08:53:11.063Z,548.00
2017-12-21T08:54:11.078Z,548.00
2017-12-21T08:55:11.090Z,548.00
2017-12-21T08:56:11.105Z,560.00
2017-12-21T08:57:11.120Z,528.00
2017-12-21T08:58:11.132Z,508.00
2017-12-21T08:59:11.151Z,504.00
2017-12-21T09:00:11.164Z,504.00
2017-12-21T09:01:11.191Z,464.00
2017-12-21T09:02:11.190Z,460.00
2017-12-21T09:03:11.208Z,464.00
2017-12-21T09:04:11.223Z,484.00
2017-12-21T09:05:11.232Z,484.00
2017-12-21T09:06:11.246Z,492.00
2017-12-21T09:07:11.263Z,508.00
2017-12-21T09:08:11.295Z,512.00
2017-12-21T09:09:11.292Z,536.00
2017-12-21T09:10:11.305Z,552.00
2017-12-21T09:11:11.625Z,548.00
2017-12-21T09:12:11.335Z,564.00
2017-12-21T09:13:11.467Z,548.00
2017-12-21T09:14:11.367Z,504.00
2017-12-21T09:15:11.381Z,504.00
2017-12-21T09:16:11.408Z,504.00
2017-12-21T09:17:11.408Z,508.00
2017-12-21T09:18:11.441Z,476.00
2017-12-21T09:19:11.436Z,488.00
2017-12-21T09:20:11.456Z,540.00
2017-12-21T09:21:11.475Z,532.00
2017-12-21T09:22:11.484Z,556.00
2017-12-21T09:23:11.492Z,548.00
2017-12-21T09:24:11.508Z,548.00
2017-12-21T09:25:11.526Z,556.00
2017-12-21T09:26:11.537Z,544.00
2017-12-21T09:27:11.552Z,548.00
2017-12-21T09:28:11.564Z,572.00
2017-12-21T09:29:11.579Z,592.00
2017-12-21T09:30:11.597Z,568.00
2017-12-21T09:31:11.607Z,600.00
2017-12-21T09:32:11.625Z,620.00
2017-12-21T09:33:11.636Z,600.00
2017-12-21T09:34:11.651Z,584.00
2017-12-21T09:35:11.664Z,608.00
2017-12-21T09:36:11.733Z,660.00
2017-12-21T09:37:11.693Z,676.00
2017-12-21T09:38:11.708Z,696.00
2017-12-21T09:39:11.777Z,728.00
2017-12-21T09:40:11.754Z,720.00
2017-12-21T09:41:11.751Z,712.00
2017-12-21T09:42:11.766Z,752.00
2017-12-21T09:43:11.779Z,828.00
2017-12-21T09:44:11.795Z,800.00
2017-12-21T09:45:11.807Z,756.00
2017-12-21T09:46:11.897Z,748.00
2017-12-21T09:47:11.837Z,748.00
2017-12-21T09:48:11.852Z,684.00
2017-12-21T09:49:11.868Z,628.00
2017-12-21T09:50:11.882Z,580.00
2017-12-21T09:51:11.898Z,556.00
2017-12-21T09:52:11.938Z,552.00
2017-12-21T09:53:11.924Z,568.00
2017-12-21T09:54:11.938Z,552.00
2017-12-21T09:55:12.054Z,516.00
2017-12-21T09:56:11.967Z,512.00
2017-12-21T09:57:11.980Z,596.00
2017-12-21T09:58:11.993Z,652.00
2017-12-21T09:59:12.046Z,668.00
2017-12-21T10:00:12.031Z,580.00
2017-12-21T10:01:12.067Z,588.00
2017-12-21T10:02:12.052Z,616.00
2017-12-21T10:03:12.066Z,660.00
2017-12-21T10:04:12.082Z,724.00
2017-12-21T10:05:12.099Z,780.00
2017-12-21T10:06:12.110Z,800.00
2017-12-21T10:07:12.777Z,908.00
2017-12-21T10:08:12.137Z,896.00
2017-12-21T10:09:12.169Z,908.00
2017-12-21T10:10:12.170Z,908.00
2017-12-21T10:11:12.181Z,840.00
2017-12-21T10:12:12.196Z,824.00
2017-12-21T10:13:12.211Z,780.00
2017-12-21T10:14:12.224Z,744.00
2017-12-21T10:15:12.245Z,664.00
2017-12-21T10:16:12.257Z,664.00
2017-12-21T10:17:12.271Z,692.00
2017-12-21T10:18:12.280Z,744.00
2017-12-21T10:19:12.294Z,728.00
2017-12-21T10:20:12.308Z,720.00
2017-12-21T10:21:12.897Z,712.00
2017-12-21T10:22:12.342Z,712.00
2017-12-21T10:23:12.390Z,748.00
2017-12-21T10:24:12.363Z,712.00
2017-12-21T10:25:12.386Z,708.00
2017-12-21T10:26:12.396Z,640.00
2017-12-21T10:27:12.406Z,612.00
2017-12-21T10:28:12.421Z,592.00
2017-12-21T10:29:12.446Z,584.00
2017-12-21T10:30:12.450Z,580.00
2017-12-21T10:31:12.467Z,592.00
2017-12-21T10:32:12.482Z,592.00
2017-12-21T10:33:12.492Z,616.00
2017-12-21T10:34:12.508Z,600.00
2017-12-21T10:35:12.533Z,592.00
2017-12-21T10:36:12.533Z,608.00
2017-12-21T10:37:12.549Z,592.00
2017-12-21T10:38:12.565Z,572.00
2017-12-21T10:39:12.579Z,612.00
2017-12-21T10:40:12.596Z,616.00
2017-12-21T10:41:12.609Z,616.00
2017-12-21T10:42:12.617Z,620.00
2017-12-21T10:43:12.637Z,584.00
2017-12-21T10:44:12.650Z,540.00
2017-12-21T10:45:12.664Z,516.00
2017-12-21T10:46:12.700Z,504.00
2017-12-21T10:47:12.689Z,496.00
2017-12-21T10:48:12.704Z,444.00
2017-12-21T10:49:12.721Z,460.00
2017-12-21T10:50:12.741Z,484.00
2017-12-21T10:51:12.754Z,540.00
2017-12-21T10:52:12.791Z,540.00
2017-12-21T10:53:12.778Z,564.00
2017-12-21T10:54:12.790Z,596.00
2017-12-21T10:55:12.803Z,652.00
2017-12-21T10:56:12.827Z,660.00
2017-12-21T10:57:12.830Z,608.00
2017-12-21T10:58:12.846Z,596.00
2017-12-21T10:59:12.859Z,656.00
2017-12-21T11:00:12.873Z,724.00
2017-12-21T11:01:12.891Z,720.00
2017-12-21T11:02:12.904Z,696.00
2017-12-21T11:03:12.919Z,752.00
2017-12-21T11:04:12.931Z,788.00
2017-12-21T11:05:12.949Z,828.00
2017-12-21T11:06:12.961Z,892.00
2017-12-21T11:07:12.974Z,896.00
2017-12-21T11:08:12.989Z,920.00
2017-12-21T11:09:13.004Z,920.00
2017-12-21T11:10:13.023Z,1000.00
2017-12-21T11:11:13.039Z,1040.00
2017-12-21T11:12:13.045Z,1088.00
2017-12-21T11:13:13.060Z,1048.00
2017-12-21T11:14:13.080Z,1048.00
2017-12-21T11:15:13.993Z,1040.00
2017-12-21T11:16:13.152Z,1084.00
2017-12-21T11:17:13.116Z,1104.00
2017-12-21T11:18:13.137Z,1164.00
2017-12-21T11:19:13.148Z,1304.00
2017-12-21T11:20:13.161Z,1244.00
2017-12-21T11:21:13.173Z,1312.00
2017-12-21T11:22:13.243Z,1464.00
2017-12-21T11:23:13.205Z,1536.00
2017-12-21T11:24:13.218Z,1544.00
2017-12-21T11:25:13.229Z,1472.00
2017-12-21T11:26:13.245Z,1356.00
2017-12-21T11:27:13.259Z,1296.00
2017-12-21T11:28:13.269Z,1244.00
2017-12-21T11:29:13.287Z,1228.00
2017-12-21T11:30:13.304Z,1276.00
2017-12-21T11:31:13.318Z,1196.00
2017-12-21T11:32:13.328Z,1132.00
2017-12-21T11:33:13.352Z,1112.00
2017-12-21T11:34:13.360Z,1096.00
2017-12-21T11:35:13.373Z,1124.00
2017-12-21T11:36:13.405Z,1156.00
2017-12-21T11:37:13.404Z,1100.00
2017-12-21T11:38:13.441Z,1124.00
2017-12-21T11:39:13.439Z,1092.00
2017-12-21T11:40:13.450Z,1152.00
2017-12-21T11:41:13.481Z,1216.00
2017-12-21T11:42:13.477Z,1252.00
2017-12-21T11:43:13.500Z,1200.00
2017-12-21T11:44:13.502Z,1088.00
2017-12-21T11:45:13.521Z,1032.00
2017-12-21T11:46:13.532Z,1056.00
2017-12-21T11:47:13.545Z,1128.00
2017-12-21T11:48:13.562Z,1132.00
2017-12-21T11:49:13.572Z,1180.00
2017-12-21T11:50:13.591Z,1180.00
2017-12-21T11:51:13.606Z,1276.00
2017-12-21T11:52:13.616Z,1232.00
2017-12-21T11:53:13.630Z,1208.00
2017-12-21T11:54:13.645Z,1144.00
2017-12-21T11:55:13.660Z,1128.00
2017-12-21T11:56:13.674Z,1136.00
2017-12-21T11:57:13.697Z,1092.00
2017-12-21T11:58:13.703Z,1144.00
2017-12-21T11:59:13.739Z,1156.00
2017-12-21T12:00:13.733Z,1204.00
2017-12-21T12:01:13.814Z,1252.00
2017-12-21T12:02:13.759Z,1292.00
2017-12-21T12:03:13.781Z,1252.00
2017-12-21T12:04:13.793Z,1160.00
2017-12-21T12:05:13.812Z,1180.00
2017-12-21T12:06:13.818Z,1172.00
2017-12-21T12:07:13.832Z,1172.00
2017-12-21T12:08:13.846Z,1120.00
2017-12-21T12:09:13.868Z,1108.00
2017-12-21T12:10:13.881Z,1048.00
2017-12-21T12:11:13.889Z,988.00
2017-12-21T12:12:13.909Z,908.00
2017-12-21T12:13:13.926Z,788.00
2017-12-21T12:14:13.986Z,724.00
2017-12-21T12:15:13.950Z,752.00
2017-12-21T12:16:13.969Z,768.00
2017-12-21T12:17:13.978Z,808.00
2017-12-21T12:18:13.993Z,812.00
2017-12-21T12:19:14.011Z,788.00
2017-12-21T12:20:14.032Z,808.00
2017-12-21T12:21:14.039Z,820.00
2017-12-21T12:22:14.052Z,976.00
2017-12-21T12:23:14.080Z,1008.00
2017-12-21T12:24:14.085Z,1272.00
2017-12-21T12:25:14.097Z,1408.00
2017-12-21T12:26:14.114Z,1260.00
2017-12-21T12:27:14.127Z,1184.00
2017-12-21T12:28:14.169Z,1156.00
2017-12-21T12:29:14.356Z,1068.00
2017-12-21T12:30:14.172Z,960.00
2017-12-21T12:31:15.008Z,1044.00
2017-12-21T12:32:14.307Z,976.00
2017-12-21T12:33:14.213Z,1092.00
2017-12-21T12:34:14.231Z,996.00
2017-12-21T12:35:14.302Z,1080.00
2017-12-21T12:36:14.801Z,948.00
2017-12-21T12:37:14.286Z,1036.00
2017-12-21T12:38:14.288Z,1132.00
2017-12-21T12:39:14.305Z,1152.00
2017-12-21T12:41:14.331Z,1636.00
2017-12-21T12:42:14.345Z,1420.00
2017-12-21T12:43:14.365Z,1516.00
2017-12-21T12:44:14.375Z,1136.00
2017-12-21T12:45:14.390Z,1100.00
2017-12-21T12:46:14.404Z,1192.00
2017-12-21T12:47:14.424Z,1268.00
2017-12-21T12:48:14.537Z,1224.00
2017-12-21T12:49:14.453Z,1284.00
2017-12-21T12:50:14.470Z,1400.00
2017-12-21T12:51:14.482Z,1296.00
2017-12-21T12:52:14.492Z,1096.00
2017-12-21T12:53:14.509Z,1180.00
2017-12-21T12:54:14.535Z,1420.00
2017-12-21T12:55:14.538Z,1272.00
2017-12-21T12:56:14.558Z,1156.00
2017-12-21T12:57:14.571Z,1028.00
2017-12-21T12:58:14.585Z,852.00